Time;durP1;ratioP1;P1;durP2;ratioP2;P2;SDS_P1;SDS_P2;PMS_P1;PMS_P2;Temp;Humidity;BMP_temperature;BMP_pressure;BME280_temperature;BME280_humidity;BME280_pressure;Samples;Min_cycle;Max_cycle;Signal;HPM_P1;HPM_P2
2023/12/04 00:00:43;;;;;;;0.10;0.10;;;5.00;54.90;;;;;;5024580;28;20069;-84
2023/12/04 00:03:09;;;;;;;0.10;0.10;;;5.00;55.10;;;;;;5025740;28;20088;-87
2023/12/04 00:05:35;;;;;;;0.10;0.10;;;5.00;55.30;;;;;;5025960;28;20105;-87
2023/12/04 00:08:00;;;;;;;0.10;0.10;;;5.10;54.70;;;;;;5025951;28;20029;-87
2023/12/04 00:10:26;;;;;;;1.38;1.35;;;5.00;55.30;;;;;;5024696;28;20025;-86
2023/12/04 00:12:52;;;;;;;0.10;0.10;;;5.00;56.30;;;;;;5024181;28;20033;-87
2023/12/04 00:15:20;;;;;;;0.10;0.10;;;5.10;55.80;;;;;;5025157;28;20031;-86
2023/12/04 00:17:46;;;;;;;0.10;0.10;;;4.90;58.50;;;;;;5025038;28;20053;-87
2023/12/04 00:20:11;;;;;;;0.10;0.10;;;4.90;57.40;;;;;;5024258;28;20067;-86
2023/12/04 00:22:37;;;;;;;0.10;0.10;;;4.90;57.30;;;;;;5024774;28;20033;-85
2023/12/04 00:25:06;;;;;;;0.10;0.10;;;4.90;58.00;;;;;;5024135;28;20049;-86
2023/12/04 00:27:32;;;;;;;0.10;0.10;;;4.90;58.70;;;;;;5024846;28;21073;-85
2023/12/04 00:29:57;;;;;;;0.10;0.10;;;4.90;58.80;;;;;;5021992;28;20064;-85
2023/12/04 00:32:24;;;;;;;0.10;0.10;;;4.90;58.10;;;;;;5024552;28;20112;-85
2023/12/04 00:34:49;;;;;;;0.17;0.17;;;5.00;57.70;;;;;;5024585;28;20559;-86
2023/12/04 00:37:15;;;;;;;0.10;0.10;;;5.00;57.60;;;;;;5024851;28;20253;-85
2023/12/04 00:39:41;;;;;;;0.10;0.10;;;5.10;56.90;;;;;;5024681;28;20546;-85
2023/12/04 00:42:06;;;;;;;0.10;0.10;;;5.10;57.10;;;;;;5024082;28;20134;-85
2023/12/04 00:44:32;;;;;;;0.10;0.10;;;5.00;57.30;;;;;;5024594;28;20025;-84
2023/12/04 00:47:00;;;;;;;0.10;0.10;;;4.90;58.30;;;;;;5024179;28;20037;-85
2023/12/04 00:49:26;;;;;;;0.10;0.10;;;5.00;58.10;;;;;;5023851;28;20073;-86
2023/12/04 00:51:51;;;;;;;0.10;0.10;;;5.00;58.60;;;;;;5024154;28;20120;-85
2023/12/04 00:54:17;;;;;;;0.10;0.10;;;5.00;58.50;;;;;;5024166;28;20507;-85
2023/12/04 00:56:43;;;;;;;0.10;0.10;;;5.00;58.50;;;;;;5024847;28;20158;-85
2023/12/04 00:59:09;;;;;;;0.10;0.10;;;4.90;60.90;;;;;;5023631;28;20539;-85
2023/12/04 01:01:38;;;;;;;0.10;0.10;;;4.90;59.90;;;;;;5023690;28;20045;-86
2023/12/04 01:04:04;;;;;;;0.10;0.10;;;4.90;60.60;;;;;;5023617;28;20074;-85
2023/12/04 01:06:30;;;;;;;0.10;0.10;;;5.00;60.50;;;;;;5021690;28;20126;-86
2023/12/04 01:08:56;;;;;;;0.10;0.10;;;5.00;59.50;;;;;;5023616;28;20025;-86
2023/12/04 01:11:22;;;;;;;0.15;0.15;;;4.90;60.20;;;;;;5023785;28;20056;-86
2023/12/04 01:13:49;;;;;;;0.10;0.10;;;5.00;60.50;;;;;;5022866;28;20084;-86
2023/12/04 01:16:14;;;;;;;0.10;0.10;;;5.20;59.20;;;;;;5023546;28;20455;-86
2023/12/04 01:18:41;;;;;;;0.10;0.10;;;5.20;59.50;;;;;;5023303;28;20901;-85
2023/12/04 01:21:10;;;;;;;0.10;0.10;;;5.20;59.40;;;;;;5023380;28;20123;-85
2023/12/04 01:23:36;;;;;;;0.10;0.10;;;5.20;59.90;;;;;;5023739;28;20034;-85
2023/12/04 01:26:03;;;;;;;0.10;0.10;;;5.20;60.10;;;;;;5021371;28;20021;-86
2023/12/04 01:28:28;;;;;;;0.10;0.10;;;5.10;60.10;;;;;;5023700;28;20822;-86
2023/12/04 01:30:54;;;;;;;1.15;0.90;;;5.20;60.10;;;;;;5023638;28;20057;-86
2023/12/04 01:33:20;;;;;;;0.10;0.10;;;5.20;60.30;;;;;;5025818;28;20560;-87
2023/12/04 01:35:46;;;;;;;0.10;0.10;;;5.10;60.40;;;;;;5023120;28;20038;-87
2023/12/04 01:38:11;;;;;;;0.10;0.10;;;5.20;60.70;;;;;;5022261;28;20047;-86
2023/12/04 01:40:37;;;;;;;0.10;0.10;;;5.20;60.90;;;;;;5023622;28;20104;-87
2023/12/04 01:43:03;;;;;;;0.10;0.10;;;5.20;61.30;;;;;;5022170;28;20034;-86
2023/12/04 01:45:29;;;;;;;0.10;0.10;;;5.10;62.00;;;;;;5023513;28;20041;-86
2023/12/04 01:47:55;;;;;;;0.47;0.47;;;5.20;61.40;;;;;;5023090;28;20108;-85
2023/12/04 01:50:21;;;;;;;0.10;0.10;;;5.30;60.30;;;;;;5023118;28;20112;-85
2023/12/04 01:52:47;;;;;;;0.10;0.10;;;5.30;61.60;;;;;;5023368;28;20033;-85
2023/12/04 01:55:14;;;;;;;0.10;0.10;;;5.40;62.90;;;;;;5023428;28;20032;-84
2023/12/04 01:57:40;;;;;;;;;;;5.40;63.20;;;;;;5023264;28;20046;-85
2023/12/04 02:00:11;;;;;;;0.10;0.10;;;5.50;63.00;;;;;;5022752;28;20402;-86
2023/12/04 02:02:42;;;;;;;0.10;0.10;;;5.50;63.00;;;;;;5011365;28;20052;-85
2023/12/04 02:05:09;;;;;;;0.10;0.10;;;5.60;62.50;;;;;;5016244;28;20122;-86
2023/12/04 02:07:36;;;;;;;0.10;0.10;;;5.60;62.60;;;;;;5021505;28;20202;-85
2023/12/04 02:10:03;;;;;;;0.10;0.10;;;5.60;62.80;;;;;;5022915;28;20040;-86
2023/12/04 02:12:29;;;;;;;0.20;0.20;;;5.60;62.30;;;;;;5022186;28;20800;-85
2023/12/04 02:14:55;;;;;;;0.10;0.10;;;5.60;62.50;;;;;;5021262;28;20116;-86
2023/12/04 02:17:22;;;;;;;0.10;0.10;;;5.60;62.50;;;;;;5023163;28;20097;-86
2023/12/04 02:19:47;;;;;;;0.10;0.10;;;5.60;62.10;;;;;;5022869;28;20029;-86
2023/12/04 02:22:13;;;;;;;0.10;0.10;;;5.60;63.70;;;;;;5022357;28;20033;-85
2023/12/04 02:24:39;;;;;;;0.10;0.10;;;5.60;63.30;;;;;;5022372;28;20548;-86
2023/12/04 02:27:15;;;;;;;0.10;0.10;;;5.60;64.20;;;;;;5022229;28;20026;-86
2023/12/04 02:29:59;;;;;;;0.10;0.10;;;5.70;63.30;;;;;;5017577;28;20061;-85
2023/12/04 02:32:31;;;;;;;0.10;0.10;;;5.70;64.10;;;;;;5022397;28;20095;-86
2023/12/04 02:34:59;;;;;;;0.10;0.10;;;5.60;63.90;;;;;;5021507;28;20026;-85
2023/12/04 02:37:26;;;;;;;0.10;0.10;;;5.80;64.10;;;;;;5022142;28;20450;-87
2023/12/04 02:39:55;;;;;;;;;;;5.80;65.30;;;;;;5023058;28;20036;-85
2023/12/04 02:42:21;;;;;;;0.10;0.10;;;5.80;66.80;;;;;;5022697;28;19913;-86
2023/12/04 02:44:47;;;;;;;0.10;0.10;;;5.70;67.10;;;;;;5022126;28;20037;-86
2023/12/04 02:47:13;;;;;;;0.10;0.10;;;5.70;66.70;;;;;;5021754;28;20657;-85
2023/12/04 02:49:39;;;;;;;0.10;0.10;;;5.60;65.80;;;;;;5022433;28;20029;-86
2023/12/04 02:52:05;;;;;;;0.10;0.10;;;5.70;66.20;;;;;;5026776;28;20030;-85
2023/12/04 02:54:31;;;;;;;0.10;0.10;;;5.70;66.10;;;;;;5026151;28;20022;-86
2023/12/04 02:56:56;;;;;;;0.10;0.10;;;5.70;66.60;;;;;;5028919;28;20029;-86
2023/12/04 02:59:22;;;;;;;0.10;0.10;;;5.70;66.70;;;;;;5023720;28;20017;-85
2023/12/04 03:01:48;;;;;;;0.10;0.10;;;5.70;67.30;;;;;;5023654;28;20032;-84
2023/12/04 03:04:13;;;;;;;0.10;0.10;;;5.70;69.30;;;;;;5023748;28;20398;-84
2023/12/04 03:06:39;;;;;;;0.10;0.10;;;5.60;70.60;;;;;;5024138;28;20547;-84
2023/12/04 03:09:05;;;;;;;0.10;0.10;;;5.70;68.90;;;;;;5024653;28;20071;-85
2023/12/04 03:11:30;;;;;;;0.10;0.10;;;5.80;68.50;;;;;;5024318;28;20457;-86
2023/12/04 03:13:57;;;;;;;0.10;0.10;;;5.70;68.90;;;;;;5022772;28;21071;-86
2023/12/04 03:16:23;;;;;;;0.10;0.10;;;5.70;69.80;;;;;;5025974;28;20021;-85
2023/12/04 03:18:49;;;;;;;0.10;0.10;;;5.70;69.40;;;;;;5026356;28;20119;-85
2023/12/04 03:21:14;;;;;;;0.10;0.10;;;5.60;70.30;;;;;;5024971;28;20030;-85
2023/12/04 03:23:40;;;;;;;0.10;0.10;;;5.60;71.30;;;;;;5023461;28;20129;-85
2023/12/04 03:26:06;;;;;;;0.10;0.10;;;5.70;70.70;;;;;;5019379;28;20037;-85
2023/12/04 03:28:32;;;;;;;0.10;0.10;;;5.70;71.50;;;;;;5023241;28;20022;-84
2023/12/04 03:30:57;;;;;;;0.50;0.50;;;5.70;72.00;;;;;;5023638;28;20054;-85
2023/12/04 03:33:23;;;;;;;0.10;0.10;;;5.70;72.00;;;;;;5025485;28;20029;-83
2023/12/04 03:35:49;;;;;;;0.10;0.10;;;5.70;72.40;;;;;;5024776;28;20076;-85
2023/12/04 03:38:14;;;;;;;0.10;0.10;;;5.70;72.60;;;;;;5024602;28;20061;-86
2023/12/04 03:40:40;;;;;;;0.20;0.20;;;5.70;73.60;;;;;;5025595;28;20037;-85
2023/12/04 03:43:06;;;;;;;0.10;0.10;;;5.70;73.60;;;;;;5025564;28;20179;-86
2023/12/04 03:45:31;;;;;;;0.73;0.73;;;5.70;75.30;;;;;;5025742;28;20041;-85
2023/12/04 03:47:57;;;;;;;0.10;0.10;;;5.70;76.20;;;;;;5025313;28;20953;-87
2023/12/04 03:50:23;;;;;;;0.10;0.10;;;5.70;77.10;;;;;;5024688;28;20082;-85
2023/12/04 03:52:48;;;;;;;0.10;0.10;;;5.60;77.40;;;;;;5025956;28;20033;-86
2023/12/04 03:55:14;;;;;;;0.10;0.10;;;5.50;78.80;;;;;;5025301;28;20336;-84
2023/12/04 03:57:40;;;;;;;0.10;0.10;;;5.60;79.60;;;;;;5025277;28;20108;-86
2023/12/04 04:00:06;;;;;;;0.10;0.10;;;5.70;80.90;;;;;;5022784;28;20097;-85
2023/12/04 04:02:31;;;;;;;0.10;0.10;;;5.70;85.70;;;;;;5024949;28;20025;-84
2023/12/04 04:04:57;;;;;;;0.30;0.30;;;5.70;88.00;;;;;;5025092;28;20475;-84
2023/12/04 04:07:23;;;;;;;0.10;0.10;;;5.70;89.40;;;;;;5022129;28;20112;-85
2023/12/04 04:09:48;;;;;;;0.10;0.10;;;5.50;90.20;;;;;;5025294;28;20043;-85
2023/12/04 04:12:14;;;;;;;0.10;0.10;;;5.50;91.70;;;;;;5025790;28;20039;-86
2023/12/04 04:14:40;;;;;;;0.10;0.10;;;5.50;91.30;;;;;;5024804;28;20029;-86
2023/12/04 04:17:05;;;;;;;0.10;0.10;;;5.40;92.10;;;;;;5025201;28;20025;-85
2023/12/04 04:19:31;;;;;;;0.20;0.20;;;5.40;92.20;;;;;;5024921;28;20021;-85
2023/12/04 04:21:57;;;;;;;0.10;0.10;;;5.40;93.00;;;;;;5024564;28;20448;-85
2023/12/04 04:24:22;;;;;;;0.10;0.10;;;5.20;94.70;;;;;;5024324;28;20030;-85
2023/12/04 04:26:48;;;;;;;0.10;0.10;;;5.00;96.80;;;;;;5028596;28;20061;-86
2023/12/04 04:29:14;;;;;;;0.10;0.10;;;5.00;96.90;;;;;;5023502;28;20033;-85
2023/12/04 04:31:39;;;;;;;0.10;0.10;;;5.10;97.20;;;;;;5023789;28;20079;-86
2023/12/04 04:34:05;;;;;;;0.10;0.10;;;5.20;97.20;;;;;;5024192;28;20040;-86
2023/12/04 04:36:31;;;;;;;0.10;0.10;;;5.20;97.20;;;;;;5024038;28;20088;-86
2023/12/04 04:38:56;;;;;;;0.20;0.20;;;5.20;97.60;;;;;;5024081;28;20041;-84
2023/12/04 04:41:22;;;;;;;0.10;0.10;;;5.30;97.70;;;;;;5024267;28;20033;-85
2023/12/04 04:43:48;;;;;;;0.10;0.10;;;5.30;98.10;;;;;;5023534;28;20022;-85
2023/12/04 04:46:14;;;;;;;0.35;0.35;;;5.40;98.40;;;;;;5023449;28;20029;-85
2023/12/04 04:48:40;;;;;;;0.10;0.10;;;5.40;98.90;;;;;;5015701;28;20158;-85
2023/12/04 04:51:06;;;;;;;0.10;0.10;;;5.30;99.20;;;;;;5024425;28;20025;-85
2023/12/04 04:53:32;;;;;;;0.10;0.10;;;5.40;99.60;;;;;;5023752;28;20041;-83
2023/12/04 04:55:58;;;;;;;0.10;0.10;;;5.40;99.70;;;;;;5023664;28;20032;-84
2023/12/04 04:58:23;;;;;;;0.10;0.10;;;5.40;99.80;;;;;;5017634;28;20109;-87
2023/12/04 05:00:49;;;;;;;0.15;0.15;;;5.40;99.90;;;;;;5020034;28;20555;-87
2023/12/04 05:03:15;;;;;;;0.10;0.10;;;5.40;99.90;;;;;;5023221;28;20036;-87
2023/12/04 05:05:41;;;;;;;0.10;0.10;;;5.40;99.90;;;;;;5023217;28;20759;-87
2023/12/04 05:08:06;;;;;;;0.00;0.00;;;5.40;99.90;;;;;;5023811;28;20716;-87
2023/12/04 05:10:32;;;;;;;0.10;0.10;;;5.40;99.90;;;;;;5018982;28;20492;-84
2023/12/04 05:12:58;;;;;;;2.53;2.42;;;5.50;99.90;;;;;;5022134;28;20104;-86
2023/12/04 05:15:24;;;;;;;0.10;0.10;;;5.40;99.90;;;;;;5022692;28;20091;-85
2023/12/04 05:17:49;;;;;;;0.10;0.10;;;5.40;99.90;;;;;;5022871;28;20635;-84
2023/12/04 05:20:15;;;;;;;0.10;0.10;;;5.40;99.90;;;;;;5023344;28;20602;-86
2023/12/04 05:22:40;;;;;;;0.10;0.10;;;5.40;99.90;;;;;;5023272;28;20033;-86
2023/12/04 05:25:07;;;;;;;0.10;0.10;;;5.30;99.90;;;;;;5022959;28;20057;-85
2023/12/04 05:27:32;;;;;;;0.10;0.10;;;4.90;99.90;;;;;;5023933;28;20756;-84
2023/12/04 05:29:58;;;;;;;0.10;0.10;;;4.90;99.90;;;;;;5022538;28;20050;-84
2023/12/04 05:32:24;;;;;;;0.10;0.10;;;4.80;99.90;;;;;;5022817;28;20044;-84
2023/12/04 05:34:50;;;;;;;0.10;0.10;;;4.70;99.90;;;;;;5020359;28;20026;-85
2023/12/04 05:37:15;;;;;;;1.20;0.98;;;4.90;99.90;;;;;;5022721;28;20929;-82
2023/12/04 05:39:41;;;;;;;0.25;0.25;;;4.90;99.90;;;;;;5021666;28;20127;-86
2023/12/04 05:42:08;;;;;;;0.10;0.10;;;4.90;99.90;;;;;;5022004;28;20162;-84
2023/12/04 05:44:34;;;;;;;0.10;0.10;;;5.00;99.90;;;;;;5019002;28;20098;-84
2023/12/04 05:47:00;;;;;;;0.10;0.10;;;4.90;99.90;;;;;;5017800;28;20034;-88
2023/12/04 05:49:26;;;;;;;0.15;0.15;;;5.00;99.90;;;;;;5014535;28;20018;-85
2023/12/04 05:51:52;;;;;;;0.10;0.10;;;5.00;99.90;;;;;;5020076;28;20524;-85
2023/12/04 05:54:18;;;;;;;0.00;0.00;;;5.00;99.90;;;;;;5021599;28;20103;-85
2023/12/04 05:56:43;;;;;;;0.10;0.10;;;5.00;99.90;;;;;;5018998;28;20582;-84
2023/12/04 05:59:09;;;;;;;0.10;0.10;;;5.00;99.90;;;;;;5019718;28;20451;-84
2023/12/04 06:01:35;;;;;;;0.10;0.10;;;5.10;99.90;;;;;;5021740;28;20451;-83
2023/12/04 06:04:01;;;;;;;0.10;0.10;;;5.10;99.90;;;;;;5021756;28;20281;-84
2023/12/04 06:06:27;;;;;;;0.10;0.10;;;5.10;99.90;;;;;;5017334;28;20037;-87
2023/12/04 06:08:52;;;;;;;0.10;0.10;;;5.10;99.90;;;;;;5013138;28;20025;-83
2023/12/04 06:11:18;;;;;;;0.10;0.10;;;5.10;99.90;;;;;;5023180;28;20033;-85
2023/12/04 06:13:44;;;;;;;0.10;0.10;;;5.10;99.90;;;;;;5023053;28;20759;-85
2023/12/04 06:16:10;;;;;;;0.10;0.10;;;5.20;99.90;;;;;;5009842;28;20044;-86
2023/12/04 06:18:35;;;;;;;0.10;0.10;;;5.20;99.90;;;;;;5012812;28;20030;-86
2023/12/04 06:21:01;;;;;;;0.10;0.10;;;5.20;99.90;;;;;;5005913;28;20044;-85
2023/12/04 06:23:27;;;;;;;0.10;0.10;;;5.30;99.90;;;;;;5022441;28;20029;-86
2023/12/04 06:25:53;;;;;;;0.08;0.08;;;5.30;99.90;;;;;;5010073;28;20120;-84
2023/12/04 06:28:19;;;;;;;0.10;0.10;;;5.30;99.90;;;;;;5022255;28;20499;-85
2023/12/04 06:30:45;;;;;;;0.10;0.10;;;5.30;99.90;;;;;;5011033;28;20128;-85
2023/12/04 06:33:12;;;;;;;0.10;0.10;;;5.30;99.90;;;;;;5015144;28;20033;-86
2023/12/04 06:35:38;;;;;;;0.10;0.10;;;5.30;99.90;;;;;;5022057;28;20524;-85
2023/12/04 06:38:08;;;;;;;0.10;0.10;;;5.40;99.90;;;;;;5022970;28;20025;-86
2023/12/04 06:40:35;;;;;;;0.10;0.10;;;5.40;99.90;;;;;;5022673;28;20034;-86
2023/12/04 06:43:01;;;;;;;0.10;0.10;;;5.40;99.90;;;;;;5022606;28;20489;-85
2023/12/04 06:45:27;;;;;;;0.10;0.10;;;5.40;99.90;;;;;;5022405;28;20837;-86
2023/12/04 06:47:54;;;;;;;0.10;0.10;;;5.40;99.90;;;;;;5021968;28;20872;-85
2023/12/04 06:50:19;;;;;;;;;;;5.40;99.90;;;;;;5018206;28;20118;-85
2023/12/04 06:52:45;;;;;;;0.10;0.10;;;5.50;99.90;;;;;;5023128;28;20599;-85
2023/12/04 06:55:12;;;;;;;0.10;0.10;;;5.50;99.90;;;;;;5022628;28;20032;-86
2023/12/04 06:57:38;;;;;;;1.40;1.30;;;5.50;99.90;;;;;;5022690;28;20025;-85
2023/12/04 07:00:06;;;;;;;0.10;0.10;;;5.70;99.90;;;;;;5020410;28;20045;-86
2023/12/04 07:02:32;;;;;;;0.10;0.10;;;5.80;99.90;;;;;;5021056;28;20028;-85
2023/12/04 07:04:58;;;;;;;0.10;0.10;;;5.80;99.90;;;;;;5022018;28;20030;-87
2023/12/04 07:07:23;;;;;;;0.10;0.10;;;6.00;99.90;;;;;;5022279;28;20121;-86
2023/12/04 07:09:49;;;;;;;0.10;0.10;;;6.00;99.90;;;;;;5022054;28;20147;-86
2023/12/04 07:12:15;;;;;;;0.10;0.10;;;6.10;99.90;;;;;;5021745;28;20038;-87
2023/12/04 07:14:41;;;;;;;0.20;0.20;;;6.00;99.90;;;;;;5024536;28;20029;-87
2023/12/04 07:17:07;;;;;;;0.10;0.10;;;6.00;99.90;;;;;;5021785;28;20111;-83
2023/12/04 07:19:33;;;;;;;0.10;0.10;;;6.00;99.90;;;;;;5022558;28;20112;-87
2023/12/04 07:21:58;;;;;;;0.10;0.10;;;6.00;99.90;;;;;;5021879;28;20025;-87
2023/12/04 07:24:26;;;;;;;0.10;0.10;;;6.00;99.90;;;;;;5021401;28;20042;-86
2023/12/04 07:26:51;;;;;;;0.10;0.10;;;6.10;99.90;;;;;;5022321;28;20088;-87
2023/12/04 07:29:17;;;;;;;0.10;0.10;;;6.10;99.90;;;;;;5020812;28;20077;-87
2023/12/04 07:31:43;;;;;;;0.10;0.10;;;6.20;99.90;;;;;;5021523;28;20032;-85
2023/12/04 07:34:09;;;;;;;0.10;0.10;;;6.20;99.90;;;;;;5021483;28;20503;-87
2023/12/04 07:36:35;;;;;;;0.10;0.10;;;6.30;99.90;;;;;;5025071;28;20034;-86
2023/12/04 07:39:00;;;;;;;0.55;0.55;;;6.30;99.90;;;;;;5025586;28;20901;-86
2023/12/04 07:41:26;;;;;;;0.20;0.20;;;6.20;99.90;;;;;;5025794;28;20060;-86
2023/12/04 07:43:51;;;;;;;0.10;0.10;;;6.30;99.90;;;;;;5024919;28;20456;-87
2023/12/04 07:46:17;;;;;;;0.10;0.10;;;6.30;99.90;;;;;;5024908;28;20060;-87
2023/12/04 07:48:46;;;;;;;0.10;0.10;;;6.30;99.90;;;;;;5023125;28;20064;-85
2023/12/04 07:51:11;;;;;;;0.10;0.10;;;6.30;99.90;;;;;;5024541;28;20043;-87
2023/12/04 07:53:37;;;;;;;0.13;0.13;;;6.40;99.90;;;;;;5025185;28;20025;-87
2023/12/04 07:56:03;;;;;;;0.10;0.10;;;6.40;99.90;;;;;;5024326;28;20480;-86
2023/12/04 07:58:31;;;;;;;0.10;0.10;;;6.40;99.90;;;;;;5024904;28;20481;-86
2023/12/04 08:00:57;;;;;;;0.10;0.10;;;6.50;99.90;;;;;;5027618;28;20048;-87
2023/12/04 08:03:23;;;;;;;0.10;0.10;;;6.50;99.90;;;;;;5023894;28;20021;-86
2023/12/04 08:05:50;;;;;;;0.10;0.10;;;6.50;99.90;;;;;;5025319;28;20140;-87
2023/12/04 08:08:16;;;;;;;;;;;6.60;99.90;;;;;;5026143;28;20030;-86
2023/12/04 08:10:42;;;;;;;0.10;0.10;;;6.60;99.90;;;;;;5025115;28;20334;-85
2023/12/04 08:13:07;;;;;;;0.10;0.10;;;6.70;99.90;;;;;;5025385;28;20076;-87
2023/12/04 08:15:33;;;;;;;0.47;0.47;;;6.80;99.90;;;;;;5025142;28;20105;-86
2023/12/04 08:18:00;;;;;;;0.40;0.40;;;6.80;99.90;;;;;;5024679;28;20112;-87
2023/12/04 08:20:26;;;;;;;0.10;0.10;;;6.90;99.90;;;;;;5025539;28;20022;-86
2023/12/04 08:22:52;;;;;;;0.10;0.10;;;7.00;99.90;;;;;;5024723;28;20037;-86
2023/12/04 08:25:18;;;;;;;0.10;0.10;;;7.00;99.90;;;;;;5024927;28;20036;-86
2023/12/04 08:27:44;;;;;;;0.10;0.10;;;7.00;99.90;;;;;;5023934;28;20471;-86
2023/12/04 08:30:10;;;;;;;0.05;0.05;;;7.10;99.90;;;;;;5024706;28;20152;-87
2023/12/04 08:32:35;;;;;;;0.00;0.00;;;7.00;99.90;;;;;;5025232;28;20092;-86
2023/12/04 08:35:01;;;;;;;0.10;0.10;;;7.00;99.90;;;;;;5024316;28;20037;-86
2023/12/04 08:37:27;;;;;;;0.10;0.10;;;7.00;99.90;;;;;;5024651;28;20021;-86
2023/12/04 08:39:53;;;;;;;1.75;0.95;;;7.10;99.90;;;;;;5024355;28;20025;-85
2023/12/04 08:42:19;;;;;;;0.10;0.10;;;7.20;99.90;;;;;;5024239;28;20080;-86
2023/12/04 08:44:47;;;;;;;0.10;0.10;;;7.20;99.90;;;;;;5023985;28;20663;-85
2023/12/04 08:47:13;;;;;;;0.20;0.20;;;7.20;99.90;;;;;;5023520;28;20527;-86
2023/12/04 08:49:40;;;;;;;0.10;0.10;;;7.20;99.90;;;;;;5016367;28;20041;-86
2023/12/04 08:52:07;;;;;;;0.10;0.10;;;7.20;99.90;;;;;;5023851;28;20038;-85
2023/12/04 08:54:33;;;;;;;0.10;0.10;;;7.10;99.90;;;;;;5022715;28;20056;-86
2023/12/04 08:56:59;;;;;;;0.10;0.10;;;7.20;99.90;;;;;;5023744;28;20037;-86
2023/12/04 08:59:25;;;;;;;0.10;0.10;;;7.30;99.90;;;;;;5026598;28;20032;-85
2023/12/04 09:01:51;;;;;;;0.00;0.00;;;7.30;99.90;;;;;;5023828;28;20026;-86
2023/12/04 09:04:16;;;;;;;0.10;0.10;;;7.40;99.90;;;;;;5023972;28;20034;-84
2023/12/04 09:06:42;;;;;;;0.10;0.10;;;7.40;99.90;;;;;;5024046;28;20032;-86
2023/12/04 09:09:08;;;;;;;0.10;0.10;;;7.30;99.90;;;;;;5023924;28;20087;-86
2023/12/04 09:11:33;;;;;;;0.10;0.10;;;7.40;99.90;;;;;;5023763;28;20033;-85
2023/12/04 09:13:59;;;;;;;0.10;0.10;;;7.50;99.90;;;;;;5023883;28;20043;-85
2023/12/04 09:16:24;;;;;;;0.10;0.10;;;7.50;99.90;;;;;;5023832;28;20141;-85
2023/12/04 09:18:50;;;;;;;0.10;0.10;;;7.50;99.90;;;;;;5023980;28;20025;-85
2023/12/04 09:21:16;;;;;;;0.10;0.10;;;7.60;99.90;;;;;;5023824;28;20039;-86
2023/12/04 09:23:49;;;;;;;0.30;0.30;;;7.50;99.90;;;;;;5024287;28;20442;-86
2023/12/04 09:26:15;;;;;;;0.10;0.10;;;7.70;99.90;;;;;;5023956;28;20026;-86
2023/12/04 09:28:41;;;;;;;0.30;0.30;;;7.80;99.90;;;;;;5023430;28;20033;-85
2023/12/04 09:31:09;;;;;;;0.10;0.10;;;8.10;99.90;;;;;;5022998;28;20066;-86
2023/12/04 09:33:35;;;;;;;0.10;0.10;;;8.20;99.90;;;;;;5021288;28;20058;-86
2023/12/04 09:36:01;;;;;;;;;;;8.30;99.90;;;;;;5023710;28;20762;-86
2023/12/04 09:38:28;;;;;;;0.10;0.10;;;8.40;99.90;;;;;;5025435;28;19915;-85
2023/12/04 09:40:58;;;;;;;0.10;0.10;;;8.30;99.90;;;;;;5022964;28;20237;-85
2023/12/04 09:43:26;;;;;;;0.10;0.10;;;8.40;99.90;;;;;;5023245;28;20040;-87
2023/12/04 09:45:52;;;;;;;0.10;0.10;;;8.30;99.90;;;;;;5023230;28;20071;-86
2023/12/04 09:48:17;;;;;;;0.10;0.10;;;8.40;99.90;;;;;;5022535;28;20026;-85
2023/12/04 09:50:43;;;;;;;0.10;0.10;;;8.40;99.90;;;;;;5031399;28;20034;-86
2023/12/04 09:53:11;;;;;;;0.10;0.10;;;8.60;99.90;;;;;;5021858;28;20110;-86
2023/12/04 09:55:37;;;;;;;0.10;0.10;;;8.50;99.90;;;;;;5022937;28;20268;-88
2023/12/04 09:58:04;;;;;;;0.03;0.03;;;8.50;99.90;;;;;;5022265;28;20033;-86
2023/12/04 10:00:31;;;;;;;0.10;0.10;;;8.50;99.90;;;;;;5019241;28;20041;-87
2023/12/04 10:02:58;;;;;;;0.00;0.00;;;8.70;99.90;;;;;;5021855;28;20114;-86
2023/12/04 10:05:26;;;;;;;0.10;0.10;;;8.70;99.90;;;;;;5022700;28;20032;-87
2023/12/04 10:07:51;;;;;;;0.10;0.10;;;8.70;99.90;;;;;;5020900;28;20033;-85
2023/12/04 10:10:18;;;;;;;0.10;0.10;;;8.70;99.90;;;;;;5021604;28;20987;-84
2023/12/04 10:12:44;;;;;;;0.10;0.10;;;8.70;99.90;;;;;;5022261;28;20033;-83
2023/12/04 10:15:11;;;;;;;0.00;0.00;;;8.60;99.90;;;;;;5021043;28;20440;-83
2023/12/04 10:17:38;;;;;;;;;;;8.80;99.90;;;;;;5022290;28;20033;-83
2023/12/04 10:20:17;;;;;;;0.03;0.03;;;8.80;99.90;;;;;;5024684;28;19943;-84
2023/12/04 10:23:00;;;;;;;0.10;0.10;;;9.00;99.90;;;;;;5019917;28;20040;-84
2023/12/04 10:25:29;;;;;;;0.10;0.10;;;9.10;99.90;;;;;;5022587;28;20187;-84
2023/12/04 10:28:09;;;;;;;0.10;0.10;;;9.10;99.90;;;;;;5022098;28;20225;-84
2023/12/04 10:30:34;;;;;;;0.10;0.10;;;9.10;99.90;;;;;;5022253;28;20057;-84
2023/12/04 10:33:04;;;;;;;0.10;0.10;;;9.10;99.90;;;;;;5021529;28;20045;-83
2023/12/04 10:35:32;;;;;;;0.10;0.10;;;9.20;99.90;;;;;;5020991;28;20555;-84
2023/12/04 10:37:59;;;;;;;0.10;0.10;;;9.20;99.90;;;;;;5023608;28;20026;-81
2023/12/04 10:40:29;;;;;;;0.10;0.10;;;9.30;99.90;;;;;;5023221;28;20036;-84
2023/12/04 10:43:22;;;;;;;0.10;0.10;;;9.30;99.90;;;;;;5022461;28;20512;-84
2023/12/04 10:45:49;;;;;;;0.00;0.00;;;9.40;99.90;;;;;;5012358;28;20068;-84
2023/12/04 10:48:16;;;;;;;0.10;0.10;;;9.30;99.90;;;;;;5021576;28;20025;-84
2023/12/04 10:50:44;;;;;;;0.10;0.10;;;9.10;99.90;;;;;;5030478;28;20034;-84
2023/12/04 10:53:14;;;;;;;0.10;0.10;;;9.20;99.90;;;;;;5022738;28;20096;-84
2023/12/04 10:55:41;;;;;;;0.10;0.10;;;9.00;99.90;;;;;;5021987;28;20033;-84
2023/12/04 10:58:07;;;;;;;;;;;9.00;99.90;;;;;;5021878;28;20440;-85
2023/12/04 11:00:35;;;;;;;0.03;0.03;;;9.00;99.90;;;;;;5014094;28;19917;-84
2023/12/04 11:03:13;;;;;;;0.10;0.10;;;9.00;99.90;;;;;;5020527;28;20041;-85
2023/12/04 11:05:40;;;;;;;0.88;0.88;;;9.10;99.90;;;;;;5023918;28;20040;-84
2023/12/04 11:08:11;;;;;;;0.10;0.10;;;9.30;99.90;;;;;;5018976;28;20092;-84
2023/12/04 11:10:45;;;;;;;0.05;0.05;;;9.40;99.90;;;;;;5023876;28;20032;-84
2023/12/04 11:13:17;;;;;;;0.10;0.10;;;9.50;99.90;;;;;;5014159;28;20028;-85
2023/12/04 11:15:47;;;;;;;0.10;0.10;;;9.60;99.90;;;;;;5025173;28;20048;-85
2023/12/04 11:18:15;;;;;;;0.10;0.10;;;9.60;99.90;;;;;;5025391;28;20536;-82
2023/12/04 11:21:03;;;;;;;0.10;0.10;;;9.80;99.90;;;;;;5025782;28;20021;-84
2023/12/04 11:23:31;;;;;;;0.10;0.10;;;9.80;99.70;;;;;;5025364;28;20079;-84
2023/12/04 11:25:57;;;;;;;0.10;0.10;;;9.50;99.90;;;;;;5025324;28;20116;-83
2023/12/04 11:28:24;;;;;;;0.00;0.00;;;9.50;99.90;;;;;;5025032;28;20477;-82
2023/12/04 11:30:50;;;;;;;;;;;9.70;99.90;;;;;;5025665;28;20111;-84
2023/12/04 11:33:16;;;;;;;0.10;0.10;;;9.70;99.60;;;;;;5023440;28;19908;-83
2023/12/04 11:35:41;;;;;;;0.10;0.10;;;9.60;99.90;;;;;;5024968;28;20029;-83
2023/12/04 11:38:09;;;;;;;0.10;0.10;;;9.50;99.50;;;;;;5024403;28;20099;-84
2023/12/04 11:40:36;;;;;;;0.10;0.10;;;9.50;99.90;;;;;;5023585;28;20800;-83
2023/12/04 11:43:22;;;;;;;0.00;0.00;;;9.40;99.70;;;;;;5024827;28;20025;-83
2023/12/04 11:45:49;;;;;;;2.38;2.17;;;9.40;99.90;;;;;;5024963;28;20099;-84
2023/12/04 11:48:15;;;;;;;0.10;0.10;;;9.40;99.90;;;;;;5024803;28;20032;-86
2023/12/04 11:50:44;;;;;;;0.10;0.10;;;9.40;99.90;;;;;;5025563;28;20069;-82
2023/12/04 11:53:13;;;;;;;0.10;0.10;;;9.30;98.70;;;;;;5025609;28;20828;-86
2023/12/04 11:55:41;;;;;;;0.10;0.10;;;9.30;99.90;;;;;;5025210;28;20817;-87
2023/12/04 11:58:11;;;;;;;0.10;0.10;;;9.20;99.90;;;;;;5024487;28;20492;-88
2023/12/04 12:00:37;;;;;;;1.05;0.93;;;9.20;99.90;;;;;;5029822;28;20025;-86
2023/12/04 12:03:09;;;;;;;0.10;0.10;;;9.20;99.90;;;;;;5025343;28;20032;-86
2023/12/04 12:05:38;;;;;;;0.10;0.10;;;9.00;99.90;;;;;;5025481;28;20098;-87
2023/12/04 12:08:05;;;;;;;1.15;0.75;;;9.00;99.90;;;;;;5019964;28;20037;-87
2023/12/04 12:10:31;;;;;;;0.68;0.60;;;9.00;99.90;;;;;;5025084;28;20025;-88
2023/12/04 12:12:58;;;;;;;4.28;1.35;;;8.90;99.90;;;;;;5023507;28;20467;-87
2023/12/04 12:15:24;;;;;;;0.38;0.38;;;8.80;99.90;;;;;;5024752;28;20030;-88
2023/12/04 12:17:53;;;;;;;0.13;0.13;;;8.80;99.90;;;;;;5024713;28;20033;-87
2023/12/04 12:20:20;;;;;;;0.50;0.50;;;8.80;99.90;;;;;;5020332;28;20472;-87
2023/12/04 12:22:47;;;;;;;0.52;0.52;;;8.80;99.90;;;;;;5018564;28;20033;-86
2023/12/04 12:25:13;;;;;;;;;;;8.70;99.90;;;;;;5023841;28;20030;-87
2023/12/04 12:27:39;;;;;;;0.00;0.00;;;8.60;99.90;;;;;;5024807;28;19905;-87
2023/12/04 12:30:06;;;;;;;0.10;0.10;;;8.60;99.90;;;;;;5023881;28;20061;-86
2023/12/04 12:32:32;;;;;;;0.10;0.10;;;8.60;99.90;;;;;;5024240;28;20111;-86
2023/12/04 12:34:58;;;;;;;0.10;0.10;;;8.50;99.90;;;;;;5018338;28;20035;-86
2023/12/04 12:37:24;;;;;;;0.10;0.10;;;8.30;99.90;;;;;;5023955;28;20029;-87
2023/12/04 12:39:51;;;;;;;0.10;0.10;;;8.20;99.90;;;;;;5024292;28;20029;-86
2023/12/04 12:42:24;;;;;;;;;;;8.10;99.90;;;;;;5023958;28;20037;-86
2023/12/04 12:44:49;;;;;;;0.20;0.20;;;8.00;99.90;;;;;;5024015;28;19916;-86
2023/12/04 12:47:17;;;;;;;0.10;0.10;;;8.00;99.90;;;;;;5023915;28;20495;-86
2023/12/04 12:49:43;;;;;;;0.10;0.10;;;8.00;99.90;;;;;;5025379;28;20121;-87
2023/12/04 12:52:10;;;;;;;0.77;0.77;;;8.10;99.90;;;;;;5023515;28;20401;-85
2023/12/04 12:54:42;;;;;;;;;;;8.00;99.90;;;;;;5024695;28;20033;-86
2023/12/04 12:57:09;;;;;;;0.30;0.30;;;8.10;99.90;;;;;;5023245;28;19912;-82